Time;durP1;ratioP1;P1;durP2;ratioP2;P2;SDS_P1;SDS_P2;PMS_P1;PMS_P2;Temp;Humidity;BMP_temperature;BMP_pressure;BME280_temperature;BME280_humidity;BME280_pressure;Samples;Min_cycle;Max_cycle;Signal;HPM_P1;HPM_P2
2022/07/09 00:01:00;;;;;;;1.93;1.83;;;20.20;99.90;;;;;;5122126;28;20457;-81
2022/07/09 00:03:45;;;;;;;2.13;1.63;;;20.20;99.90;;;;;;5121881;28;20463;-81
2022/07/09 00:06:31;;;;;;;1.57;1.47;;;20.30;99.90;;;;;;5122032;28;20376;-81
2022/07/09 00:09:15;;;;;;;8.53;2.40;;;20.20;99.90;;;;;;5121937;28;20437;-81
2022/07/09 00:11:59;;;;;;;2.30;2.10;;;20.20;99.90;;;;;;5122546;28;20747;-82
2022/07/09 00:14:44;;;;;;;1.90;1.80;;;20.10;99.90;;;;;;5122143;28;20592;-82
2022/07/09 00:17:30;;;;;;;3.20;3.00;;;20.10;99.90;;;;;;5122549;28;20398;-81
2022/07/09 00:20:14;;;;;;;2.57;2.10;;;20.10;99.90;;;;;;5105913;28;20414;-81
2022/07/09 00:22:58;;;;;;;2.80;1.87;;;20.00;99.90;;;;;;5114836;28;20379;-82
2022/07/09 00:25:44;;;;;;;2.97;1.93;;;20.00;99.90;;;;;;5122804;28;20379;-81
2022/07/09 00:28:28;;;;;;;2.53;1.70;;;19.90;99.90;;;;;;5091828;28;20395;-81
2022/07/09 00:31:13;;;;;;;5.30;2.13;;;19.80;99.90;;;;;;5122257;28;20379;-82
2022/07/09 00:33:57;;;;;;;1.80;1.70;;;19.70;99.90;;;;;;5107382;28;20424;-82
2022/07/09 00:36:42;;;;;;;2.53;1.83;;;19.70;99.90;;;;;;5122146;28;20386;-79
2022/07/09 00:39:26;;;;;;;2.83;2.63;;;19.60;99.90;;;;;;5123853;28;20394;-80
2022/07/09 00:42:11;;;;;;;2.13;2.00;;;19.60;99.90;;;;;;5122110;28;20808;-81
2022/07/09 00:44:55;;;;;;;8.93;2.47;;;19.50;99.90;;;;;;5065496;28;20406;-81
2022/07/09 00:47:40;;;;;;;2.37;2.17;;;18.70;99.90;;;;;;5122941;28;20383;-82
2022/07/09 00:50:24;;;;;;;2.43;2.07;;;18.30;99.90;;;;;;5124780;28;20399;-82
2022/07/09 00:53:12;;;;;;;2.80;2.60;;;18.20;99.90;;;;;;5123470;28;20734;-80
2022/07/09 00:55:56;;;;;;;9.57;3.17;;;18.00;99.90;;;;;;5123926;28;20430;-82
2022/07/09 00:58:43;;;;;;;5.90;2.70;;;18.00;99.90;;;;;;5121589;28;20466;-81
2022/07/09 01:01:29;;;;;;;2.27;2.17;;;18.00;99.90;;;;;;5124514;28;20431;-81
2022/07/09 01:04:15;;;;;;;2.80;2.40;;;17.90;99.90;;;;;;5108921;28;20396;-80
2022/07/09 01:06:59;;;;;;;2.30;2.10;;;17.90;99.90;;;;;;5126007;28;20914;-79
2022/07/09 01:09:47;;;;;;;3.40;3.10;;;17.90;99.90;;;;;;5131397;28;20463;-79
2022/07/09 01:12:32;;;;;;;7.17;1.90;;;17.80;99.90;;;;;;5131680;28;20432;-80
2022/07/09 01:15:16;;;;;;;4.87;2.43;;;17.90;99.90;;;;;;5133051;28;20391;-78
2022/07/09 01:18:01;;;;;;;8.93;2.27;;;18.00;99.90;;;;;;5131320;28;20386;-79
2022/07/09 01:20:45;;;;;;;2.47;2.27;;;18.00;99.90;;;;;;5132052;28;20446;-79
2022/07/09 01:23:29;;;;;;;3.90;3.03;;;18.00;99.90;;;;;;5116889;28;20406;-78
2022/07/09 01:26:14;;;;;;;5.07;2.37;;;18.00;99.90;;;;;;5130723;28;20380;-79
2022/07/09 01:28:58;;;;;;;2.70;2.50;;;18.10;99.90;;;;;;5131000;28;20399;-78
2022/07/09 01:31:42;;;;;;;4.10;2.50;;;18.10;99.90;;;;;;5131711;28;20415;-78
2022/07/09 01:34:26;;;;;;;9.90;2.97;;;18.10;99.90;;;;;;5117193;28;20422;-79
2022/07/09 01:37:11;;;;;;;4.10;2.33;;;18.20;99.90;;;;;;5132049;28;20777;-79
2022/07/09 01:39:55;;;;;;;2.70;2.50;;;18.10;99.90;;;;;;5117432;28;20383;-79
2022/07/09 01:42:40;;;;;;;5.70;2.90;;;18.10;99.90;;;;;;5133033;28;20433;-79
2022/07/09 01:45:24;;;;;;;2.60;2.20;;;18.10;99.90;;;;;;5131518;28;20376;-79
2022/07/09 01:48:09;;;;;;;4.03;2.30;;;18.10;99.90;;;;;;5131146;28;20375;-78
2022/07/09 01:50:53;;;;;;;2.77;1.97;;;18.10;99.90;;;;;;5112175;28;20378;-81
2022/07/09 01:53:39;;;;;;;2.73;2.50;;;18.10;99.90;;;;;;5125131;28;20406;-82
2022/07/09 01:56:24;;;;;;;4.30;2.30;;;18.20;99.90;;;;;;5077215;28;20508;-82
2022/07/09 01:59:08;;;;;;;2.40;2.20;;;18.20;99.90;;;;;;5120207;28;20458;-82
2022/07/09 02:01:53;;;;;;;2.23;2.03;;;18.10;99.90;;;;;;5120323;28;20438;-81
2022/07/09 02:04:38;;;;;;;3.57;2.27;;;18.10;99.90;;;;;;5123584;28;20387;-81
2022/07/09 02:07:22;;;;;;;4.70;2.23;;;18.20;99.90;;;;;;5106203;28;20437;-81
2022/07/09 02:10:07;;;;;;;2.57;2.37;;;17.90;99.90;;;;;;5105996;28;20383;-82
2022/07/09 02:12:51;;;;;;;2.53;2.30;;;18.00;99.90;;;;;;5124052;28;20376;-80
2022/07/09 02:15:35;;;;;;;2.87;2.10;;;17.90;99.90;;;;;;5113124;28;20399;-79
2022/07/09 02:18:20;;;;;;;4.10;2.80;;;18.00;99.90;;;;;;5121735;28;20471;-81
2022/07/09 02:21:05;;;;;;;2.63;2.40;;;17.90;99.90;;;;;;5120098;28;20957;-81
2022/07/09 02:23:49;;;;;;;4.13;2.33;;;17.80;99.90;;;;;;5119683;28;20746;-81
2022/07/09 02:26:33;;;;;;;4.50;2.30;;;18.00;99.90;;;;;;5119893;28;20386;-81
2022/07/09 02:29:18;;;;;;;3.20;2.67;;;17.90;99.90;;;;;;5120149;28;20437;-82
2022/07/09 02:32:03;;;;;;;2.17;2.07;;;17.90;99.90;;;;;;5119604;28;20390;-82
2022/07/09 02:34:48;;;;;;;4.00;2.50;;;17.70;99.90;;;;;;5119719;28;20460;-82
2022/07/09 02:37:33;;;;;;;3.17;2.10;;;17.80;99.90;;;;;;5119147;28;20462;-82
2022/07/09 02:40:18;;;;;;;2.57;2.17;;;17.70;99.90;;;;;;5119226;28;20436;-82
2022/07/09 02:43:02;;;;;;;5.10;2.33;;;17.80;99.90;;;;;;5119755;28;20443;-81
2022/07/09 02:45:47;;;;;;;2.30;2.20;;;17.80;99.90;;;;;;5119671;28;20807;-81
2022/07/09 02:48:31;;;;;;;4.03;2.30;;;17.90;99.90;;;;;;5119485;28;20790;-82
2022/07/09 02:51:16;;;;;;;4.40;2.33;;;18.10;99.90;;;;;;5119720;28;20406;-81
2022/07/09 02:54:00;;;;;;;2.87;2.30;;;18.20;99.90;;;;;;5119601;28;20478;-82
2022/07/09 02:56:44;;;;;;;3.23;2.93;;;18.00;99.90;;;;;;5110745;28;20720;-81
2022/07/09 02:59:28;;;;;;;3.33;1.93;;;17.90;99.90;;;;;;5118993;28;20572;-82
2022/07/09 03:02:13;;;;;;;2.33;2.23;;;17.70;99.90;;;;;;5118639;28;20515;-81
2022/07/09 03:04:57;;;;;;;3.23;2.20;;;17.80;99.90;;;;;;5119620;28;20437;-81
2022/07/09 03:07:41;;;;;;;2.40;2.20;;;18.00;99.90;;;;;;5104052;28;20375;-81
2022/07/09 03:10:26;;;;;;;3.90;2.23;;;18.30;99.90;;;;;;5119885;28;20479;-82
2022/07/09 03:13:10;;;;;;;3.97;2.53;;;18.20;99.90;;;;;;5103887;28;20410;-81
2022/07/09 03:15:54;;;;;;;2.50;2.30;;;18.30;99.90;;;;;;5119953;28;20384;-81
2022/07/09 03:18:39;;;;;;;13.27;3.03;;;18.40;99.90;;;;;;5119715;28;20467;-82
2022/07/09 03:21:23;;;;;;;2.43;2.17;;;18.50;99.90;;;;;;5119996;28;20438;-81
2022/07/09 03:24:09;;;;;;;2.87;2.33;;;18.40;99.90;;;;;;5108488;28;20389;-81
2022/07/09 03:26:53;;;;;;;3.47;2.50;;;18.50;99.90;;;;;;5123690;28;20387;-81
2022/07/09 03:29:38;;;;;;;2.50;2.30;;;18.50;99.90;;;;;;5110449;28;20403;-79
2022/07/09 03:32:22;;;;;;;2.97;2.27;;;17.90;99.90;;;;;;5130756;28;20401;-80
2022/07/09 03:35:07;;;;;;;3.43;1.93;;;17.50;99.90;;;;;;5129954;28;20391;-81
2022/07/09 03:37:51;;;;;;;2.53;2.33;;;17.30;99.90;;;;;;5123450;28;20390;-81
2022/07/09 03:40:35;;;;;;;12.10;2.93;;;17.30;99.90;;;;;;5107402;28;20462;-80
2022/07/09 03:43:19;;;;;;;5.80;2.70;;;17.50;99.90;;;;;;5123435;28;20433;-81
2022/07/09 03:46:04;;;;;;;2.80;2.60;;;17.50;99.90;;;;;;5123188;28;20407;-79
2022/07/09 03:48:49;;;;;;;2.43;1.97;;;17.40;99.90;;;;;;5115043;28;20441;-79
2022/07/09 03:51:33;;;;;;;3.00;2.80;;;17.30;99.90;;;;;;5134137;27;20428;-79
2022/07/09 03:54:17;;;;;;;2.40;2.20;;;17.40;99.90;;;;;;5130806;27;20440;-79
2022/07/09 03:57:02;;;;;;;2.53;2.33;;;17.50;99.90;;;;;;5128992;27;20418;-78
2022/07/09 03:59:46;;;;;;;4.07;2.83;;;17.20;99.90;;;;;;5116659;28;20499;-78
2022/07/09 04:02:31;;;;;;;2.40;2.30;;;17.20;99.90;;;;;;5115654;28;20483;-78
2022/07/09 04:05:16;;;;;;;3.17;2.90;;;17.10;99.90;;;;;;5129280;28;20415;-79
2022/07/09 04:08:00;;;;;;;6.60;3.13;;;17.00;99.90;;;;;;5123232;28;20428;-81
2022/07/09 04:10:45;;;;;;;2.57;2.37;;;17.00;99.90;;;;;;5123041;28;20391;-81
2022/07/09 04:13:29;;;;;;;2.83;2.63;;;17.00;99.90;;;;;;5122774;28;20379;-82
2022/07/09 04:16:14;;;;;;;3.00;2.80;;;17.10;99.90;;;;;;5107146;28;20904;-81
2022/07/09 04:18:59;;;;;;;2.23;2.13;;;16.70;99.90;;;;;;5122347;28;20386;-81
2022/07/09 04:21:43;;;;;;;3.53;2.33;;;16.80;99.90;;;;;;5122281;28;20516;-81
2022/07/09 04:24:29;;;;;;;4.47;2.80;;;16.70;99.90;;;;;;5121776;28;20929;-80
2022/07/09 04:27:13;;;;;;;2.90;2.70;;;16.80;99.90;;;;;;5122113;28;20745;-80
2022/07/09 04:29:58;;;;;;;2.50;2.30;;;16.80;99.90;;;;;;5106971;28;20379;-81
2022/07/09 04:32:43;;;;;;;3.37;3.03;;;16.70;99.90;;;;;;5106625;28;20417;-81
2022/07/09 04:35:28;;;;;;;3.27;2.53;;;16.90;99.90;;;;;;5106506;28;20395;-81
2022/07/09 04:38:12;;;;;;;3.33;2.90;;;17.20;99.90;;;;;;5122249;28;20384;-81
2022/07/09 04:40:58;;;;;;;3.10;2.90;;;17.30;99.90;;;;;;5121821;28;20441;-81
2022/07/09 04:43:42;;;;;;;4.63;2.53;;;17.40;99.90;;;;;;5106907;28;20430;-82
2022/07/09 04:46:30;;;;;;;2.93;2.70;;;16.80;99.90;;;;;;5122055;28;20388;-82
2022/07/09 04:49:14;;;;;;;4.13;2.50;;;16.80;99.90;;;;;;5107236;28;20405;-82
2022/07/09 04:51:59;;;;;;;2.80;2.30;;;16.70;99.90;;;;;;5122234;28;20379;-82
2022/07/09 04:54:43;;;;;;;4.73;2.87;;;16.60;99.90;;;;;;5122139;28;20386;-82
2022/07/09 04:57:28;;;;;;;2.67;2.47;;;16.80;99.90;;;;;;5121457;28;20422;-81
2022/07/09 05:00:13;;;;;;;2.80;2.60;;;16.70;99.90;;;;;;5122232;28;20444;-81
2022/07/09 05:02:57;;;;;;;3.30;3.10;;;16.80;99.90;;;;;;5106849;28;20437;-82
2022/07/09 05:05:42;;;;;;;3.07;2.60;;;16.90;99.90;;;;;;5121673;28;20399;-81
2022/07/09 05:08:26;;;;;;;2.23;2.13;;;16.80;99.90;;;;;;5122008;28;20371;-81
2022/07/09 05:11:11;;;;;;;2.40;2.30;;;16.90;99.90;;;;;;5122163;28;20963;-82
2022/07/09 05:13:56;;;;;;;3.10;2.73;;;17.10;99.90;;;;;;5121546;28;20405;-82
2022/07/09 05:16:44;;;;;;;3.70;2.87;;;16.80;99.90;;;;;;5121738;28;20445;-81
2022/07/09 05:19:28;;;;;;;3.60;2.57;;;17.00;99.90;;;;;;5107056;28;20376;-82
2022/07/09 05:22:12;;;;;;;2.70;2.50;;;17.20;99.90;;;;;;5121732;28;20438;-82
2022/07/09 05:24:57;;;;;;;2.60;2.40;;;17.20;99.90;;;;;;5121665;28;20379;-81
2022/07/09 05:27:43;;;;;;;6.70;3.10;;;17.50;99.90;;;;;;5121907;28;20391;-82
2022/07/09 05:30:27;;;;;;;5.43;2.63;;;17.70;99.90;;;;;;5121587;28;20428;-81
2022/07/09 05:33:11;;;;;;;2.57;2.37;;;17.20;99.90;;;;;;5121854;28;20384;-82
2022/07/09 05:35:55;;;;;;;3.53;2.40;;;17.30;99.90;;;;;;5092113;28;20436;-81
2022/07/09 05:38:40;;;;;;;5.27;2.80;;;17.10;99.90;;;;;;5120635;28;20407;-81
2022/07/09 05:41:24;;;;;;;2.50;2.30;;;16.90;99.90;;;;;;5105272;28;20434;-81
2022/07/09 05:44:09;;;;;;;3.30;2.60;;;16.90;99.90;;;;;;5121654;28;20432;-81
2022/07/09 05:46:53;;;;;;;9.53;4.00;;;17.00;99.90;;;;;;5107873;28;20475;-78
2022/07/09 05:49:38;;;;;;;3.97;2.57;;;16.90;99.90;;;;;;5128650;28;20419;-77
2022/07/09 05:52:22;;;;;;;5.03;3.27;;;17.30;99.90;;;;;;5051435;28;20494;-78
2022/07/09 05:55:07;;;;;;;3.53;2.97;;;17.30;99.90;;;;;;5066195;28;20390;-78
2022/07/09 05:57:52;;;;;;;6.43;3.40;;;17.40;99.90;;;;;;5065121;28;20473;-82
2022/07/09 06:00:36;;;;;;;5.93;2.60;;;17.80;99.90;;;;;;5045595;28;20492;-80
2022/07/09 06:03:21;;;;;;;5.40;2.87;;;17.70;99.90;;;;;;5061985;28;20382;-81
2022/07/09 06:06:05;;;;;;;2.67;2.50;;;17.70;99.90;;;;;;5048578;28;20417;-81
2022/07/09 06:08:50;;;;;;;3.07;2.60;;;17.90;99.90;;;;;;5060383;28;20390;-81
2022/07/09 06:11:35;;;;;;;4.83;3.20;;;18.20;99.90;;;;;;5046137;28;20413;-80
2022/07/09 06:14:20;;;;;;;2.93;2.53;;;18.30;99.90;;;;;;5059244;28;20389;-82
2022/07/09 06:17:05;;;;;;;2.47;2.33;;;18.30;99.90;;;;;;5058186;28;20467;-82
2022/07/09 06:19:50;;;;;;;3.53;2.57;;;18.50;99.90;;;;;;5058105;28;20389;-82
2022/07/09 06:22:34;;;;;;;2.23;2.07;;;18.70;99.90;;;;;;5075481;28;20516;-82
2022/07/09 06:25:19;;;;;;;2.50;2.30;;;18.90;99.90;;;;;;5120593;28;20470;-81
2022/07/09 06:28:04;;;;;;;2.43;2.23;;;19.20;99.90;;;;;;5121089;28;20433;-81
2022/07/09 06:30:48;;;;;;;4.63;2.10;;;19.40;99.90;;;;;;5105406;28;20863;-81
2022/07/09 06:33:32;;;;;;;2.90;2.07;;;19.20;99.90;;;;;;5120731;28;20387;-81
2022/07/09 06:36:16;;;;;;;2.50;2.07;;;19.20;99.90;;;;;;5119646;28;20383;-82
2022/07/09 06:42:07;;;;;;;5.23;1.93;;;19.40;99.90;;;;;;5120444;28;20504;-82
2022/07/09 06:44:51;;;;;;;2.77;2.57;;;19.40;99.90;;;;;;5121243;28;20530;-81
2022/07/09 06:47:36;;;;;;;5.13;2.93;;;19.70;99.90;;;;;;5090092;28;20406;-80
2022/07/09 06:50:20;;;;;;;5.07;3.63;;;19.90;99.90;;;;;;5104397;28;20521;-81
2022/07/09 06:53:05;;;;;;;3.83;2.67;;;19.80;99.90;;;;;;5120512;28;20572;-82
2022/07/09 06:55:49;;;;;;;3.83;2.20;;;19.80;99.90;;;;;;5120575;28;20811;-82
2022/07/09 06:58:33;;;;;;;6.93;2.60;;;19.70;99.90;;;;;;5124027;28;20527;-82
2022/07/09 07:01:17;;;;;;;2.43;2.23;;;20.00;99.90;;;;;;5094435;28;20481;-81
2022/07/09 07:04:02;;;;;;;3.20;2.40;;;20.00;99.90;;;;;;5123971;28;20456;-81
2022/07/09 07:06:48;;;;;;;7.07;2.43;;;19.90;99.90;;;;;;5109408;28;20425;-82
2022/07/09 07:09:32;;;;;;;2.37;2.03;;;20.10;99.90;;;;;;5129310;28;20391;-80
2022/07/09 07:12:17;;;;;;;3.20;2.77;;;20.00;99.90;;;;;;5098924;28;20422;-81
2022/07/09 07:15:02;;;;;;;1.73;1.63;;;20.00;99.90;;;;;;5142349;28;20391;-81
2022/07/09 07:17:48;;;;;;;2.90;2.17;;;20.60;99.90;;;;;;5142342;28;20394;-80
2022/07/09 07:20:32;;;;;;;2.23;2.10;;;20.90;99.90;;;;;;5141912;28;20387;-81
2022/07/09 07:23:16;;;;;;;8.77;2.80;;;21.10;99.90;;;;;;5123307;28;20441;-81
2022/07/09 07:26:01;;;;;;;2.10;1.90;;;21.20;99.90;;;;;;5121526;28;20378;-81
2022/07/09 07:28:46;;;;;;;4.00;2.43;;;21.50;99.90;;;;;;5121227;28;20394;-81
2022/07/09 07:31:30;;;;;;;8.17;3.03;;;21.60;99.90;;;;;;5135610;28;20784;-82
2022/07/09 07:34:17;;;;;;;5.83;2.70;;;21.70;99.90;;;;;;5136177;28;20440;-81
2022/07/09 07:37:02;;;;;;;3.80;2.73;;;21.70;99.90;;;;;;5136113;28;20387;-82
2022/07/09 07:39:47;;;;;;;4.77;2.47;;;21.80;99.90;;;;;;5135256;28;20390;-83
2022/07/09 07:42:32;;;;;;;2.50;2.10;;;21.90;99.90;;;;;;5135145;28;20466;-81
2022/07/09 07:45:16;;;;;;;3.50;2.50;;;22.00;99.90;;;;;;5120164;28;20386;-82
2022/07/09 07:48:01;;;;;;;4.70;2.40;;;22.20;99.90;;;;;;5136173;28;20405;-82
2022/07/09 07:50:46;;;;;;;2.73;2.33;;;22.30;99.90;;;;;;5136186;28;20939;-82
2022/07/09 07:53:31;;;;;;;2.57;2.37;;;22.30;99.90;;;;;;5136589;28;20462;-81
2022/07/09 07:56:16;;;;;;;2.97;2.70;;;22.60;99.90;;;;;;5135891;28;20426;-82
2022/07/09 07:59:01;;;;;;;3.23;2.27;;;22.60;99.90;;;;;;5107281;28;20774;-82
2022/07/09 08:01:46;;;;;;;4.53;2.37;;;22.60;99.90;;;;;;5122553;28;20443;-82
2022/07/09 08:04:30;;;;;;;5.03;2.80;;;22.70;99.90;;;;;;5124050;28;20379;-82
2022/07/09 08:07:14;;;;;;;3.93;2.40;;;22.90;99.90;;;;;;5122673;28;20463;-82
2022/07/09 08:09:59;;;;;;;2.40;2.20;;;23.10;99.90;;;;;;5124934;28;20732;-82
2022/07/09 08:12:43;;;;;;;4.03;2.03;;;23.10;99.90;;;;;;5123927;28;20438;-82
2022/07/09 08:15:28;;;;;;;3.07;2.30;;;23.00;99.90;;;;;;5125243;28;20380;-82
2022/07/09 08:18:13;;;;;;;4.00;2.27;;;23.00;99.90;;;;;;5122008;28;20483;-82
2022/07/09 08:20:58;;;;;;;3.60;2.10;;;22.80;99.90;;;;;;5123315;28;20800;-82
2022/07/09 08:26:40;;;;;;;6.80;3.40;;;22.60;99.90;;;;;;5122453;28;20387;-81
2022/07/09 08:29:25;;;;;;;5.20;2.37;;;22.50;99.90;;;;;;5122276;28;20469;-82
2022/07/09 08:32:09;;;;;;;3.70;1.70;;;22.60;99.90;;;;;;5122672;28;20497;-82
2022/07/09 08:34:54;;;;;;;3.30;2.07;;;22.70;99.90;;;;;;5122842;28;20471;-82
2022/07/09 08:37:44;;;;;;;12.53;2.63;;;22.90;99.90;;;;;;5123575;28;20448;-81
2022/07/09 08:40:30;;;;;;;4.37;2.17;;;22.90;99.90;;;;;;5122655;28;20415;-82
2022/07/09 08:43:15;;;;;;;2.17;2.03;;;23.10;99.90;;;;;;5106232;28;20480;-82
2022/07/09 08:45:59;;;;;;;3.43;2.00;;;23.10;99.90;;;;;;5104180;28;20404;-83
2022/07/09 08:48:45;;;;;;;2.40;2.20;;;23.20;99.90;;;;;;5121484;28;20444;-82
2022/07/09 08:51:31;;;;;;;2.43;2.07;;;23.20;99.90;;;;;;5114156;28;20915;-82
2022/07/09 08:54:16;;;;;;;3.23;2.13;;;23.20;99.90;;;;;;5106072;28;20407;-82
2022/07/09 08:57:01;;;;;;;2.17;1.93;;;23.10;99.90;;;;;;5099083;28;20530;-83
2022/07/09 08:59:45;;;;;;;4.00;2.20;;;22.90;99.90;;;;;;5092612;28;20472;-82
2022/07/09 09:02:38;;;;;;;5.27;2.27;;;22.90;99.90;;;;;;5088685;28;20439;-82
2022/07/09 09:05:22;;;;;;;3.37;1.90;;;22.90;99.90;;;;;;5102399;28;20430;-82
2022/07/09 09:08:23;;;;;;;2.93;2.73;;;22.60;99.90;;;;;;5086148;28;20470;-80
2022/07/09 09:11:19;;;;;;;2.53;2.33;;;22.70;99.90;;;;;;5071730;28;20411;-82
2022/07/09 09:14:04;;;;;;;3.90;2.30;;;22.40;99.90;;;;;;5100972;28;20418;-82
2022/07/09 09:16:48;;;;;;;1.77;1.67;;;22.70;99.90;;;;;;5085742;28;20556;-82
2022/07/09 09:19:33;;;;;;;2.47;2.00;;;22.80;99.90;;;;;;5101432;28;20498;-83
2022/07/09 09:22:18;;;;;;;4.43;2.67;;;23.00;99.90;;;;;;5085972;28;20763;-83
2022/07/09 09:25:03;;;;;;;3.23;2.17;;;23.20;99.90;;;;;;5089224;28;20392;-83
2022/07/09 09:28:03;;;;;;;3.53;1.90;;;23.10;99.90;;;;;;5089513;28;20406;-81
2022/07/09 09:30:48;;;;;;;3.30;1.80;;;23.10;99.90;;;;;;5100443;28;20422;-83
2022/07/09 09:33:32;;;;;;;2.10;2.00;;;22.90;99.90;;;;;;5086772;28;20420;-82
2022/07/09 09:36:27;;;;;;;5.93;2.23;;;22.70;99.90;;;;;;5086233;28;20414;-82
2022/07/09 09:39:18;;;;;;;2.27;2.03;;;22.80;99.90;;;;;;5115856;28;20527;-82
2022/07/09 09:42:04;;;;;;;2.17;2.00;;;22.80;99.90;;;;;;5105474;28;20442;-82
2022/07/09 09:44:50;;;;;;;2.30;2.20;;;22.90;99.90;;;;;;5121209;28;20472;-82
2022/07/09 09:47:35;;;;;;;2.17;1.97;;;23.00;99.90;;;;;;5120963;28;20909;-82
2022/07/09 09:50:21;;;;;;;2.20;2.00;;;23.10;99.90;;;;;;5121425;28;20409;-83
2022/07/09 09:53:09;;;;;;;5.53;2.17;;;23.10;99.90;;;;;;5120761;28;20394;-82
2022/07/09 09:55:54;;;;;;;2.73;2.47;;;23.20;99.90;;;;;;5091064;28;20491;-82
2022/07/09 09:58:40;;;;;;;4.80;2.20;;;23.20;99.90;;;;;;5089654;28;20845;-82
2022/07/09 10:01:25;;;;;;;2.07;1.97;;;23.10;99.90;;;;;;5119016;28;20453;-82
2022/07/09 10:04:12;;;;;;;2.60;2.17;;;23.10;99.90;;;;;;5104058;28;20395;-82
2022/07/09 10:06:57;;;;;;;2.50;2.30;;;23.10;99.90;;;;;;5121682;28;20379;-81
2022/07/09 10:09:51;;;;;;;2.10;2.00;;;23.00;99.90;;;;;;5107606;28;20402;-82
2022/07/09 10:12:36;;;;;;;2.03;1.90;;;22.90;99.90;;;;;;5123683;28;20555;-81
2022/07/09 10:15:23;;;;;;;3.60;3.13;;;22.90;99.90;;;;;;5120934;28;20396;-82
2022/07/09 10:18:11;;;;;;;1.93;1.70;;;22.80;99.90;;;;;;5120896;28;20480;-81
2022/07/09 10:20:56;;;;;;;1.87;1.77;;;22.70;99.90;;;;;;5103547;28;20476;-82
2022/07/09 10:23:50;;;;;;;2.00;1.90;;;22.50;99.90;;;;;;5118517;28;20383;-82
2022/07/09 10:26:46;;;;;;;2.30;2.10;;;22.40;99.90;;;;;;5104293;28;20515;-83
2022/07/09 10:29:31;;;;;;;2.73;2.10;;;22.40;99.90;;;;;;5119174;28;20425;-82
2022/07/09 10:32:26;;;;;;;4.10;2.43;;;22.20;99.90;;;;;;5119698;28;20418;-82
2022/07/09 10:35:10;;;;;;;4.37;2.30;;;22.30;99.90;;;;;;5119765;28;20516;-82
2022/07/09 10:37:55;;;;;;;2.40;2.20;;;22.30;99.90;;;;;;5089633;28;20441;-82
2022/07/09 10:40:42;;;;;;;3.00;2.40;;;22.40;99.90;;;;;;5119106;28;20395;-82
2022/07/09 10:43:49;;;;;;;2.30;2.20;;;22.40;99.90;;;;;;5076636;28;20428;-82
2022/07/09 10:46:34;;;;;;;5.60;1.87;;;22.50;99.90;;;;;;5062915;28;20428;-82
2022/07/09 10:49:19;;;;;;;3.93;2.87;;;22.50;99.90;;;;;;5075789;28;20482;-82
2022/07/09 10:52:05;;;;;;;2.20;2.00;;;22.60;99.90;;;;;;5076224;28;20532;-83
2022/07/09 10:54:50;;;;;;;2.57;2.37;;;22.40;99.90;;;;;;5049999;28;20403;-81
2022/07/09 10:57:37;;;;;;;3.67;2.10;;;22.60;99.90;;;;;;5063096;28;20455;-82
2022/07/09 11:00:27;;;;;;;3.97;2.33;;;22.70;99.90;;;;;;5075522;28;20404;-83
2022/07/09 11:03:11;;;;;;;2.40;2.10;;;22.80;99.90;;;;;;5061710;28;20533;-82
2022/07/09 11:05:57;;;;;;;2.40;2.15;;;22.80;99.90;;;;;;5034173;28;20544;-82
2022/07/09 11:08:44;;;;;;;2.83;2.33;;;22.80;99.90;;;;;;5066600;28;20678;-82
2022/07/09 11:11:28;;;;;;;2.07;1.97;;;23.00;99.90;;;;;;5054099;28;20428;-82
2022/07/09 11:14:13;;;;;;;3.33;2.37;;;23.10;99.90;;;;;;5094115;28;20454;-82
2022/07/09 11:16:59;;;;;;;2.87;2.40;;;23.20;99.90;;;;;;5100704;28;20495;-81
2022/07/09 11:19:43;;;;;;;3.23;2.40;;;23.30;99.90;;;;;;5083210;28;20876;-82
2022/07/09 11:22:27;;;;;;;2.40;2.20;;;23.50;99.90;;;;;;5100479;28;20439;-82
2022/07/09 11:25:13;;;;;;;3.00;2.70;;;23.70;99.90;;;;;;5086387;28;20400;-82
2022/07/09 11:27:59;;;;;;;3.83;2.77;;;24.00;99.90;;;;;;5085318;28;20437;-83
2022/07/09 11:30:44;;;;;;;3.40;2.97;;;24.00;99.90;;;;;;5079482;28;20413;-83
2022/07/09 11:34:10;;;;;;;3.13;2.83;;;24.30;99.90;;;;;;5084590;28;20407;-81
2022/07/09 11:36:37;;;;;;;3.63;3.20;;;24.40;99.90;;;;;;5098500;28;20395;-82
2022/07/09 11:39:28;;;;;;;3.27;2.97;;;24.40;99.90;;;;;;5098061;28;20459;-81
2022/07/09 11:42:17;;;;;;;7.53;4.20;;;23.90;99.90;;;;;;5083129;28;20481;-81
2022/07/09 11:45:02;;;;;;;4.10;3.67;;;24.30;99.90;;;;;;5103737;28;20463;-82
2022/07/09 11:47:46;;;;;;;3.67;3.33;;;24.40;99.90;;;;;;5102169;28;20432;-82
2022/07/09 11:50:31;;;;;;;3.67;2.97;;;24.70;99.90;;;;;;5103054;28;20442;-83
2022/07/09 11:53:21;;;;;;;3.90;3.60;;;24.30;99.90;;;;;;5089390;28;20517;-83
2022/07/09 11:56:06;;;;;;;3.33;2.63;;;24.40;99.90;;;;;;5102188;28;20500;-82
2022/07/09 11:58:51;;;;;;;2.97;2.77;;;24.40;99.90;;;;;;5072803;28;20517;-83
2022/07/09 12:01:36;;;;;;;3.20;3.00;;;24.70;99.90;;;;;;5087975;28;20459;-83
2022/07/09 12:04:21;;;;;;;2.73;2.53;;;24.80;99.90;;;;;;5104015;28;20391;-81
2022/07/09 12:07:10;;;;;;;2.70;2.50;;;24.80;99.90;;;;;;5087894;28;20484;-83
2022/07/09 12:10:06;;;;;;;3.60;3.30;;;25.10;99.90;;;;;;5102875;28;20460;-83
2022/07/09 12:12:51;;;;;;;2.83;2.63;;;25.50;99.90;;;;;;5102942;28;20407;-83
2022/07/09 12:15:35;;;;;;;3.07;2.80;;;25.40;99.90;;;;;;5103018;28;20395;-83
2022/07/09 12:18:20;;;;;;;4.23;3.50;;;25.50;99.90;;;;;;5102396;28;20502;-83
2022/07/09 12:21:05;;;;;;;5.17;2.77;;;25.40;99.90;;;;;;5102611;28;20463;-82
2022/07/09 12:23:49;;;;;;;3.20;2.37;;;25.40;99.90;;;;;;5087558;28;20387;-82
2022/07/09 12:26:33;;;;;;;2.87;2.57;;;25.20;99.90;;;;;;5103413;28;20449;-82
2022/07/09 12:29:18;;;;;;;3.27;2.97;;;25.00;99.90;;;;;;5087202;28;20395;-82
2022/07/09 12:32:03;;;;;;;2.70;2.50;;;24.80;99.90;;;;;;5088175;28;20391;-82
2022/07/09 12:34:47;;;;;;;5.13;3.17;;;24.50;99.90;;;;;;5088553;28;20399;-83
2022/07/09 12:37:31;;;;;;;10.13;3.20;;;24.30;99.90;;;;;;5103121;28;20380;-82
2022/07/09 12:40:15;;;;;;;2.93;2.73;;;23.70;99.90;;;;;;5101816;28;20388;-82
2022/07/09 12:43:00;;;;;;;3.87;2.90;;;23.10;99.90;;;;;;5085921;28;20416;-83
2022/07/09 12:45:45;;;;;;;3.53;2.53;;;23.10;99.90;;;;;;5085868;28;20392;-82
2022/07/09 12:48:29;;;;;;;3.13;2.47;;;23.10;99.90;;;;;;5101224;28;20396;-84
2022/07/09 12:51:13;;;;;;;3.17;2.87;;;23.00;99.90;;;;;;5101994;28;20578;-82
2022/07/09 12:53:57;;;;;;;3.13;2.33;;;23.10;99.90;;;;;;5085131;28;20950;-82
2022/07/09 12:56:42;;;;;;;3.07;2.60;;;23.10;99.90;;;;;;5101659;28;21031;-81
2022/07/09 12:59:26;;;;;;;2.17;2.07;;;23.10;99.90;;;;;;5100435;28;20475;-83
2022/07/09 13:02:11;;;;;;;2.63;2.43;;;23.20;99.90;;;;;;5122820;28;20442;-82
2022/07/09 13:04:55;;;;;;;3.10;2.77;;;23.50;99.90;;;;;;5108518;28;20379;-82
2022/07/09 13:07:40;;;;;;;2.73;2.53;;;22.90;99.90;;;;;;5124894;28;20395;-82
2022/07/09 13:10:24;;;;;;;3.23;2.93;;;22.90;99.90;;;;;;5126288;28;20417;-83
2022/07/09 13:13:08;;;;;;;2.57;2.37;;;23.20;99.90;;;;;;5107137;28;20472;-83
2022/07/09 13:15:53;;;;;;;6.63;2.63;;;23.70;99.90;;;;;;5121469;28;20407;-82
2022/07/09 13:18:37;;;;;;;4.00;2.93;;;24.10;99.90;;;;;;5105760;28;20456;-81
2022/07/09 13:21:22;;;;;;;4.83;2.90;;;24.10;99.90;;;;;;5108543;28;20443;-79
2022/07/09 13:24:07;;;;;;;2.57;2.37;;;24.30;99.90;;;;;;5107531;28;20443;-84
2022/07/09 13:26:51;;;;;;;3.87;2.90;;;24.40;99.90;;;;;;5121128;28;20375;-84
2022/07/09 13:29:36;;;;;;;2.43;2.23;;;24.30;99.90;;;;;;5121539;28;20472;-84
2022/07/09 13:32:21;;;;;;;3.50;2.43;;;24.40;99.90;;;;;;5119941;28;20386;-83
2022/07/09 13:35:06;;;;;;;2.77;2.57;;;24.40;99.90;;;;;;5104939;28;20494;-85
2022/07/09 13:37:50;;;;;;;3.40;3.00;;;24.60;99.90;;;;;;5104037;28;20425;-84
2022/07/09 13:40:34;;;;;;;4.90;2.73;;;24.70;99.90;;;;;;5103201;28;20525;-84
2022/07/09 13:43:24;;;;;;;4.07;2.77;;;24.80;99.90;;;;;;5119174;28;20407;-82
2022/07/09 13:46:09;;;;;;;9.47;2.60;;;24.70;99.90;;;;;;5106384;28;20430;-85
2022/07/09 13:48:54;;;;;;;6.80;2.87;;;24.70;99.90;;;;;;5105567;28;20388;-83
2022/07/09 13:51:38;;;;;;;2.90;2.70;;;24.60;99.90;;;;;;5123019;28;20436;-86
2022/07/09 13:54:23;;;;;;;3.20;3.00;;;24.40;99.90;;;;;;5124163;28;20383;-86
2022/07/09 13:57:07;;;;;;;3.20;2.90;;;24.30;99.90;;;;;;5125621;28;20859;-85
2022/07/09 13:59:52;;;;;;;3.00;2.80;;;24.20;99.90;;;;;;5108581;28;20414;-86
2022/07/09 14:02:36;;;;;;;6.47;2.60;;;24.20;99.90;;;;;;5121126;28;20438;-82
2022/07/09 14:05:21;;;;;;;3.20;2.90;;;24.20;99.90;;;;;;5121803;28;20386;-84
2022/07/09 14:08:06;;;;;;;2.90;2.70;;;24.10;99.90;;;;;;5120289;28;20482;-83
2022/07/09 14:10:57;;;;;;;3.27;3.07;;;24.00;99.90;;;;;;5121548;28;20387;-83
2022/07/09 14:13:43;;;;;;;3.03;2.83;;;24.00;99.90;;;;;;5121627;28;20856;-83
2022/07/09 14:16:28;;;;;;;3.20;2.80;;;23.90;99.90;;;;;;5106068;28;20751;-83
2022/07/09 14:19:12;;;;;;;3.13;2.90;;;23.90;99.90;;;;;;5131523;28;20474;-83
2022/07/09 14:21:58;;;;;;;2.80;2.60;;;23.80;99.90;;;;;;5132145;28;20450;-82
2022/07/09 14:24:43;;;;;;;2.90;2.70;;;23.80;99.90;;;;;;5117241;28;20395;-79